Weather Forecast for Al Bateen Airport 
Wednesday, August 23, 2017 (17:36 UTC)
Al Bateen Executive Airport
ICAO Code: OMAD
IATA Code: AZI
  • METAR OMAD 231700Z 03008KT CAVOK 35/27 Q1000 NOSIG=
  • TAF OMAD 231700Z 2318/2500 04005KT 8000 NSC BECMG 2401/2403 16015KT PROB30 TEMPO 2402/2405 4000 DU BECMG 2410/2412 34012KT BECMG 2418/2420 06005KT=
AL BATEEN (OMAD) 5 DAY OUTLOOK:
Friday, 25/Aug/2017
HIGH:
43°C
LOW:
31°C
MIN. VISIBILITY:
6000 meters
WIND (DIRECTION/SPEED):
SE at 7 - 10 knots (13 - 19 km/h) becoming NW at 10 - 15 knots (19 - 28 km/h)
WEATHER:
Partly Cloudy.
RAINFALL:
Nil
Saturday, 26/Aug/2017
HIGH:
42°C
LOW:
31°C
MIN. VISIBILITY:
4000 meters
WIND (DIRECTION/SPEED):
SSE at 3 - 5 knots (6 - 9 km/h) becoming NW at 10 - 15 knots (19 - 28 km/h)
WEATHER:
Hazy at first otherwise sunny.
RAINFALL:
Nil
Sunday, 27/Aug/2017
HIGH:
42°C
LOW:
31°C
MIN. VISIBILITY:
6000 meters
WIND (DIRECTION/SPEED):
ESE at 3 - 5 knots (6 - 9 km/h) becoming NW at 10 - 15 knots (19 - 28 km/h)
WEATHER:
Sunny
RAINFALL:
Nil
Monday, 28/Aug/2017
HIGH:
42°C
LOW:
31°C
MIN. VISIBILITY:
7000 meters
WIND (DIRECTION/SPEED):
ESE at 7 - 10 knots (13 - 19 km/h) becoming NNW at 10 - 15 knots (19 - 28 km/h)
WEATHER:
Sunny
RAINFALL:
Nil
Tuesday, 29/Aug/2017
HIGH:
41°C
LOW:
31°C
MIN. VISIBILITY:
7000 meters
WIND (DIRECTION/SPEED):
ESE at 7 - 10 knots (13 - 19 km/h) becoming NW at 10 - 15 knots (19 - 28 km/h)
WEATHER:
Sunny
RAINFALL:
Nil